sensor_id;sensor_type;location;lat;lon;timestamp;P1;durP1;ratioP1;P2;durP2;ratioP2
49834;SDS011;35729;52.090;13.162;2023-10-31T00:00:05;6.53;;;4.80;;
49834;SDS011;35729;52.090;13.162;2023-10-31T00:02:37;9.55;;;4.63;;
49834;SDS011;35729;52.090;13.162;2023-10-31T00:05:06;7.28;;;4.93;;
49834;SDS011;35729;52.090;13.162;2023-10-31T00:07:34;9.07;;;5.53;;
49834;SDS011;35729;52.090;13.162;2023-10-31T00:10:06;11.80;;;5.07;;
49834;SDS011;35729;52.090;13.162;2023-10-31T00:12:35;5.70;;;4.70;;
49834;SDS011;35729;52.090;13.162;2023-10-31T00:15:04;7.95;;;4.78;;
49834;SDS011;35729;52.090;13.162;2023-10-31T00:17:33;8.20;;;5.05;;
49834;SDS011;35729;52.090;13.162;2023-10-31T00:20:01;8.13;;;6.22;;
49834;SDS011;35729;52.090;13.162;2023-10-31T00:22:30;7.80;;;4.68;;
49834;SDS011;35729;52.090;13.162;2023-10-31T00:24:58;5.53;;;4.88;;
49834;SDS011;35729;52.090;13.162;2023-10-31T00:27:29;8.20;;;5.03;;
49834;SDS011;35729;52.090;13.162;2023-10-31T00:29:58;8.00;;;4.75;;
49834;SDS011;35729;52.090;13.162;2023-10-31T00:32:26;5.93;;;4.90;;
49834;SDS011;35729;52.090;13.162;2023-10-31T00:34:55;7.03;;;5.40;;
49834;SDS011;35729;52.090;13.162;2023-10-31T00:37:24;8.93;;;5.57;;
49834;SDS011;35729;52.090;13.162;2023-10-31T00:39:53;8.35;;;4.85;;
49834;SDS011;35729;52.090;13.162;2023-10-31T00:42:21;6.57;;;4.57;;
49834;SDS011;35729;52.090;13.162;2023-10-31T00:44:52;7.43;;;5.10;;
49834;SDS011;35729;52.090;13.162;2023-10-31T00:47:21;7.20;;;4.68;;
49834;SDS011;35729;52.090;13.162;2023-10-31T00:49:55;6.40;;;4.97;;
49834;SDS011;35729;52.090;13.162;2023-10-31T00:52:24;9.98;;;6.53;;
49834;SDS011;35729;52.090;13.162;2023-10-31T00:54:52;7.97;;;6.28;;
49834;SDS011;35729;52.090;13.162;2023-10-31T00:57:21;11.88;;;6.63;;
49834;SDS011;35729;52.090;13.162;2023-10-31T00:59:52;10.85;;;7.03;;
49834;SDS011;35729;52.090;13.162;2023-10-31T01:02:20;13.82;;;7.85;;
49834;SDS011;35729;52.090;13.162;2023-10-31T01:04:49;9.25;;;6.93;;
49834;SDS011;35729;52.090;13.162;2023-10-31T01:07:17;9.55;;;6.50;;
49834;SDS011;35729;52.090;13.162;2023-10-31T01:09:45;6.00;;;5.00;;
49834;SDS011;35729;52.090;13.162;2023-10-31T01:12:14;8.77;;;5.60;;
49834;SDS011;35729;52.090;13.162;2023-10-31T01:14:42;11.88;;;5.57;;
49834;SDS011;35729;52.090;13.162;2023-10-31T01:17:13;5.88;;;4.53;;
49834;SDS011;35729;52.090;13.162;2023-10-31T01:19:42;7.70;;;5.38;;
49834;SDS011;35729;52.090;13.162;2023-10-31T01:22:10;6.32;;;4.63;;
49834;SDS011;35729;52.090;13.162;2023-10-31T01:24:39;6.50;;;4.78;;
49834;SDS011;35729;52.090;13.162;2023-10-31T01:27:07;7.22;;;4.85;;
49834;SDS011;35729;52.090;13.162;2023-10-31T01:29:36;8.05;;;5.35;;
49834;SDS011;35729;52.090;13.162;2023-10-31T01:32:04;7.85;;;5.20;;
49834;SDS011;35729;52.090;13.162;2023-10-31T01:34:36;8.35;;;5.50;;
49834;SDS011;35729;52.090;13.162;2023-10-31T01:37:04;7.15;;;4.82;;
49834;SDS011;35729;52.090;13.162;2023-10-31T01:39:33;7.18;;;5.43;;
49834;SDS011;35729;52.090;13.162;2023-10-31T01:42:04;15.23;;;9.27;;
49834;SDS011;35729;52.090;13.162;2023-10-31T01:44:32;26.80;;;23.52;;
49834;SDS011;35729;52.090;13.162;2023-10-31T01:47:01;19.70;;;17.83;;
49834;SDS011;35729;52.090;13.162;2023-10-31T01:49:29;9.70;;;8.02;;
49834;SDS011;35729;52.090;13.162;2023-10-31T01:52:01;9.52;;;7.55;;
49834;SDS011;35729;52.090;13.162;2023-10-31T01:54:30;9.02;;;5.97;;
49834;SDS011;35729;52.090;13.162;2023-10-31T01:57:00;8.48;;;5.50;;
49834;SDS011;35729;52.090;13.162;2023-10-31T01:59:30;10.48;;;8.70;;
49834;SDS011;35729;52.090;13.162;2023-10-31T02:01:59;23.85;;;21.48;;
49834;SDS011;35729;52.090;13.162;2023-10-31T02:04:29;37.95;;;31.85;;
49834;SDS011;35729;52.090;13.162;2023-10-31T02:06:57;116.90;;;89.57;;
49834;SDS011;35729;52.090;13.162;2023-10-31T02:09:28;126.28;;;106.00;;
49834;SDS011;35729;52.090;13.162;2023-10-31T02:11:57;33.00;;;25.70;;
49834;SDS011;35729;52.090;13.162;2023-10-31T02:14:25;12.27;;;11.07;;
49834;SDS011;35729;52.090;13.162;2023-10-31T02:16:54;11.45;;;10.23;;
49834;SDS011;35729;52.090;13.162;2023-10-31T02:19:22;12.18;;;8.65;;
49834;SDS011;35729;52.090;13.162;2023-10-31T02:21:53;9.85;;;8.07;;
49834;SDS011;35729;52.090;13.162;2023-10-31T02:24:22;7.78;;;6.80;;
49834;SDS011;35729;52.090;13.162;2023-10-31T02:26:50;9.18;;;7.88;;
49834;SDS011;35729;52.090;13.162;2023-10-31T02:29:19;12.48;;;10.05;;
49834;SDS011;35729;52.090;13.162;2023-10-31T02:31:47;14.55;;;8.13;;
49834;SDS011;35729;52.090;13.162;2023-10-31T02:34:16;9.95;;;7.00;;
49834;SDS011;35729;52.090;13.162;2023-10-31T02:36:44;11.15;;;7.50;;
49834;SDS011;35729;52.090;13.162;2023-10-31T02:39:15;10.88;;;6.88;;
49834;SDS011;35729;52.090;13.162;2023-10-31T02:41:44;11.88;;;8.07;;
49834;SDS011;35729;52.090;13.162;2023-10-31T02:44:14;10.10;;;7.97;;
49834;SDS011;35729;52.090;13.162;2023-10-31T02:46:43;11.43;;;8.18;;
49834;SDS011;35729;52.090;13.162;2023-10-31T02:49:11;12.73;;;7.53;;
49834;SDS011;35729;52.090;13.162;2023-10-31T02:51:40;9.60;;;7.40;;
49834;SDS011;35729;52.090;13.162;2023-10-31T02:54:08;12.73;;;7.63;;
49834;SDS011;35729;52.090;13.162;2023-10-31T02:56:39;10.02;;;7.25;;
49834;SDS011;35729;52.090;13.162;2023-10-31T02:59:08;8.65;;;6.57;;
49834;SDS011;35729;52.090;13.162;2023-10-31T03:01:36;9.98;;;6.90;;
49834;SDS011;35729;52.090;13.162;2023-10-31T03:04:05;12.45;;;7.28;;
49834;SDS011;35729;52.090;13.162;2023-10-31T03:06:33;11.98;;;7.75;;
49834;SDS011;35729;52.090;13.162;2023-10-31T03:09:02;27.15;;;20.73;;
49834;SDS011;35729;52.090;13.162;2023-10-31T03:11:30;27.85;;;22.88;;
49834;SDS011;35729;52.090;13.162;2023-10-31T03:14:02;13.13;;;11.45;;
49834;SDS011;35729;52.090;13.162;2023-10-31T03:16:31;12.90;;;9.32;;
49834;SDS011;35729;52.090;13.162;2023-10-31T03:19:00;16.55;;;12.57;;
49834;SDS011;35729;52.090;13.162;2023-10-31T03:21:28;23.90;;;20.25;;
49834;SDS011;35729;52.090;13.162;2023-10-31T03:23:57;30.70;;;19.77;;
49834;SDS011;35729;52.090;13.162;2023-10-31T03:26:26;32.20;;;23.08;;
49834;SDS011;35729;52.090;13.162;2023-10-31T03:28:54;30.80;;;27.52;;
49834;SDS011;35729;52.090;13.162;2023-10-31T03:31:25;27.45;;;23.13;;
49834;SDS011;35729;52.090;13.162;2023-10-31T03:33:54;14.45;;;12.10;;
49834;SDS011;35729;52.090;13.162;2023-10-31T03:36:22;12.55;;;10.68;;
49834;SDS011;35729;52.090;13.162;2023-10-31T03:38:51;18.25;;;12.15;;
49834;SDS011;35729;52.090;13.162;2023-10-31T03:41:19;18.70;;;10.55;;
49834;SDS011;35729;52.090;13.162;2023-10-31T03:43:47;15.02;;;9.32;;
49834;SDS011;35729;52.090;13.162;2023-10-31T03:46:16;14.82;;;11.13;;
49834;SDS011;35729;52.090;13.162;2023-10-31T03:48:47;15.73;;;11.55;;
49834;SDS011;35729;52.090;13.162;2023-10-31T03:51:22;12.63;;;10.13;;
49834;SDS011;35729;52.090;13.162;2023-10-31T03:53:57;15.63;;;10.70;;
49834;SDS011;35729;52.090;13.162;2023-10-31T03:56:25;15.45;;;10.60;;
49834;SDS011;35729;52.090;13.162;2023-10-31T03:58:54;14.75;;;11.13;;
49834;SDS011;35729;52.090;13.162;2023-10-31T04:01:23;15.27;;;10.85;;
49834;SDS011;35729;52.090;13.162;2023-10-31T04:03:54;16.33;;;11.55;;
49834;SDS011;35729;52.090;13.162;2023-10-31T04:06:23;13.35;;;10.55;;
49834;SDS011;35729;52.090;13.162;2023-10-31T04:08:51;17.30;;;11.88;;
49834;SDS011;35729;52.090;13.162;2023-10-31T04:11:20;17.77;;;12.05;;
49834;SDS011;35729;52.090;13.162;2023-10-31T04:13:49;18.35;;;12.48;;
49834;SDS011;35729;52.090;13.162;2023-10-31T04:16:17;16.80;;;11.95;;
49834;SDS011;35729;52.090;13.162;2023-10-31T04:18:46;17.33;;;13.00;;
49834;SDS011;35729;52.090;13.162;2023-10-31T04:21:17;23.45;;;17.50;;
49834;SDS011;35729;52.090;13.162;2023-10-31T04:23:45;21.92;;;14.43;;
49834;SDS011;35729;52.090;13.162;2023-10-31T04:26:14;18.83;;;13.20;;
49834;SDS011;35729;52.090;13.162;2023-10-31T04:28:42;19.08;;;12.65;;
49834;SDS011;35729;52.090;13.162;2023-10-31T04:31:11;20.08;;;12.75;;
49834;SDS011;35729;52.090;13.162;2023-10-31T04:33:39;18.70;;;13.75;;
49834;SDS011;35729;52.090;13.162;2023-10-31T04:36:08;19.70;;;14.07;;
49834;SDS011;35729;52.090;13.162;2023-10-31T04:38:39;18.42;;;12.57;;
49834;SDS011;35729;52.090;13.162;2023-10-31T04:41:07;22.92;;;12.20;;
49834;SDS011;35729;52.090;13.162;2023-10-31T04:43:36;14.57;;;11.55;;
49834;SDS011;35729;52.090;13.162;2023-10-31T04:46:06;16.42;;;11.50;;
49834;SDS011;35729;52.090;13.162;2023-10-31T04:48:35;17.02;;;12.13;;
49834;SDS011;35729;52.090;13.162;2023-10-31T04:51:04;23.92;;;16.00;;
49834;SDS011;35729;52.090;13.162;2023-10-31T04:53:32;19.33;;;13.82;;
49834;SDS011;35729;52.090;13.162;2023-10-31T04:56:04;15.98;;;10.88;;
49834;SDS011;35729;52.090;13.162;2023-10-31T04:58:32;19.75;;;11.52;;
49834;SDS011;35729;52.090;13.162;2023-10-31T05:01:01;17.00;;;11.73;;
49834;SDS011;35729;52.090;13.162;2023-10-31T05:03:29;16.90;;;11.38;;
49834;SDS011;35729;52.090;13.162;2023-10-31T05:05:58;16.17;;;11.13;;
49834;SDS011;35729;52.090;13.162;2023-10-31T05:08:26;17.70;;;10.98;;
49834;SDS011;35729;52.090;13.162;2023-10-31T05:10:55;15.82;;;10.15;;
49834;SDS011;35729;52.090;13.162;2023-10-31T05:13:27;13.18;;;10.30;;
49834;SDS011;35729;52.090;13.162;2023-10-31T05:15:56;13.85;;;9.75;;
49834;SDS011;35729;52.090;13.162;2023-10-31T05:18:24;13.60;;;8.68;;
49834;SDS011;35729;52.090;13.162;2023-10-31T05:20:52;11.35;;;7.90;;
49834;SDS011;35729;52.090;13.162;2023-10-31T05:23:21;13.13;;;7.57;;
49834;SDS011;35729;52.090;13.162;2023-10-31T05:25:49;9.50;;;7.07;;
49834;SDS011;35729;52.090;13.162;2023-10-31T05:28:18;9.68;;;6.07;;
49834;SDS011;35729;52.090;13.162;2023-10-31T05:30:49;7.53;;;5.03;;
49834;SDS011;35729;52.090;13.162;2023-10-31T05:33:17;6.07;;;4.95;;
49834;SDS011;35729;52.090;13.162;2023-10-31T05:35:46;6.10;;;4.97;;
49834;SDS011;35729;52.090;13.162;2023-10-31T05:38:14;5.25;;;4.75;;
49834;SDS011;35729;52.090;13.162;2023-10-31T05:40:43;5.25;;;4.05;;
49834;SDS011;35729;52.090;13.162;2023-10-31T05:43:11;5.70;;;4.40;;
49834;SDS011;35729;52.090;13.162;2023-10-31T05:45:40;7.20;;;4.90;;
49834;SDS011;35729;52.090;13.162;2023-10-31T05:48:11;7.03;;;6.00;;
49834;SDS011;35729;52.090;13.162;2023-10-31T05:50:41;11.95;;;8.23;;
49834;SDS011;35729;52.090;13.162;2023-10-31T05:53:10;13.38;;;9.35;;
49834;SDS011;35729;52.090;13.162;2023-10-31T05:55:38;14.23;;;9.15;;
49834;SDS011;35729;52.090;13.162;2023-10-31T05:58:07;20.83;;;11.70;;
49834;SDS011;35729;52.090;13.162;2023-10-31T06:00:35;17.23;;;11.70;;
49834;SDS011;35729;52.090;13.162;2023-10-31T06:03:05;18.33;;;11.73;;
49834;SDS011;35729;52.090;13.162;2023-10-31T06:05:37;19.15;;;12.93;;
49834;SDS011;35729;52.090;13.162;2023-10-31T06:08:05;22.25;;;12.82;;
49834;SDS011;35729;52.090;13.162;2023-10-31T06:10:34;25.35;;;14.00;;
49834;SDS011;35729;52.090;13.162;2023-10-31T06:13:02;21.40;;;13.50;;
49834;SDS011;35729;52.090;13.162;2023-10-31T06:15:30;22.02;;;13.18;;
49834;SDS011;35729;52.090;13.162;2023-10-31T06:17:59;20.15;;;12.73;;
49834;SDS011;35729;52.090;13.162;2023-10-31T06:20:28;23.20;;;13.30;;
49834;SDS011;35729;52.090;13.162;2023-10-31T06:22:59;17.85;;;12.23;;
49834;SDS011;35729;52.090;13.162;2023-10-31T06:25:28;19.15;;;12.52;;
49834;SDS011;35729;52.090;13.162;2023-10-31T06:27:57;19.35;;;13.13;;
49834;SDS011;35729;52.090;13.162;2023-10-31T06:30:25;22.02;;;13.43;;
49834;SDS011;35729;52.090;13.162;2023-10-31T06:32:54;19.25;;;13.10;;
49834;SDS011;35729;52.090;13.162;2023-10-31T06:35:22;17.73;;;12.20;;
49834;SDS011;35729;52.090;13.162;2023-10-31T06:37:54;17.23;;;12.38;;
49834;SDS011;35729;52.090;13.162;2023-10-31T06:40:27;17.83;;;12.32;;
49834;SDS011;35729;52.090;13.162;2023-10-31T06:42:55;15.98;;;12.18;;
49834;SDS011;35729;52.090;13.162;2023-10-31T06:45:24;16.30;;;11.52;;
49834;SDS011;35729;52.090;13.162;2023-10-31T06:47:52;16.27;;;11.48;;
49834;SDS011;35729;52.090;13.162;2023-10-31T06:50:21;14.80;;;10.95;;
49834;SDS011;35729;52.090;13.162;2023-10-31T06:52:50;12.60;;;10.27;;
49834;SDS011;35729;52.090;13.162;2023-10-31T06:55:18;16.20;;;9.88;;
49834;SDS011;35729;52.090;13.162;2023-10-31T06:57:49;13.23;;;9.40;;
49834;SDS011;35729;52.090;13.162;2023-10-31T07:00:18;12.52;;;8.52;;
49834;SDS011;35729;52.090;13.162;2023-10-31T07:02:46;11.10;;;8.30;;
49834;SDS011;35729;52.090;13.162;2023-10-31T07:05:15;13.60;;;8.68;;
49834;SDS011;35729;52.090;13.162;2023-10-31T07:07:45;13.75;;;8.52;;
49834;SDS011;35729;52.090;13.162;2023-10-31T07:10:14;11.45;;;7.80;;
49834;SDS011;35729;52.090;13.162;2023-10-31T07:12:42;12.13;;;8.43;;
49834;SDS011;35729;52.090;13.162;2023-10-31T07:15:14;8.23;;;6.82;;
49834;SDS011;35729;52.090;13.162;2023-10-31T07:17:42;8.20;;;6.55;;
49834;SDS011;35729;52.090;13.162;2023-10-31T07:20:10;10.02;;;7.15;;
49834;SDS011;35729;52.090;13.162;2023-10-31T07:22:39;7.47;;;5.50;;
49834;SDS011;35729;52.090;13.162;2023-10-31T07:25:08;6.72;;;5.53;;
49834;SDS011;35729;52.090;13.162;2023-10-31T07:27:37;6.05;;;4.90;;
49834;SDS011;35729;52.090;13.162;2023-10-31T07:30:06;5.20;;;4.70;;
49834;SDS011;35729;52.090;13.162;2023-10-31T07:32:37;4.80;;;3.47;;
49834;SDS011;35729;52.090;13.162;2023-10-31T07:35:06;4.72;;;3.45;;
49834;SDS011;35729;52.090;13.162;2023-10-31T07:37:35;2.95;;;2.42;;
49834;SDS011;35729;52.090;13.162;2023-10-31T07:40:03;3.17;;;2.00;;
49834;SDS011;35729;52.090;13.162;2023-10-31T07:42:33;2.05;;;1.70;;
49834;SDS011;35729;52.090;13.162;2023-10-31T07:45:01;3.00;;;1.52;;
49834;SDS011;35729;52.090;13.162;2023-10-31T07:47:30;1.10;;;0.80;;
49834;SDS011;35729;52.090;13.162;2023-10-31T07:50:01;1.52;;;0.80;;
49834;SDS011;35729;52.090;13.162;2023-10-31T07:52:30;0.85;;;0.70;;
49834;SDS011;35729;52.090;13.162;2023-10-31T07:54:59;1.25;;;0.60;;
49834;SDS011;35729;52.090;13.162;2023-10-31T07:57:27;1.27;;;0.85;;
49834;SDS011;35729;52.090;13.162;2023-10-31T07:59:56;3.05;;;0.90;;
49834;SDS011;35729;52.090;13.162;2023-10-31T08:02:24;1.73;;;0.77;;
49834;SDS011;35729;52.090;13.162;2023-10-31T08:04:53;2.22;;;1.00;;
49834;SDS011;35729;52.090;13.162;2023-10-31T08:07:24;1.77;;;1.08;;
49834;SDS011;35729;52.090;13.162;2023-10-31T08:09:55;1.10;;;0.93;;
49834;SDS011;35729;52.090;13.162;2023-10-31T08:12:23;3.45;;;1.17;;
49834;SDS011;35729;52.090;13.162;2023-10-31T08:14:52;2.50;;;1.05;;
49834;SDS011;35729;52.090;13.162;2023-10-31T08:17:20;1.13;;;0.75;;
49834;SDS011;35729;52.090;13.162;2023-10-31T08:19:49;2.92;;;0.77;;
49834;SDS011;35729;52.090;13.162;2023-10-31T08:22:17;1.23;;;0.70;;
49834;SDS011;35729;52.090;13.162;2023-10-31T08:24:48;0.50;;;0.50;;
49834;SDS011;35729;52.090;13.162;2023-10-31T08:27:17;1.25;;;0.55;;
49834;SDS011;35729;52.090;13.162;2023-10-31T08:29:46;2.65;;;0.60;;
49834;SDS011;35729;52.090;13.162;2023-10-31T08:32:15;0.98;;;0.68;;
49834;SDS011;35729;52.090;13.162;2023-10-31T08:34:43;2.08;;;0.80;;
49834;SDS011;35729;52.090;13.162;2023-10-31T08:37:12;1.10;;;0.70;;
49834;SDS011;35729;52.090;13.162;2023-10-31T08:39:40;1.80;;;0.68;;
49834;SDS011;35729;52.090;13.162;2023-10-31T08:42:12;0.50;;;0.40;;
49834;SDS011;35729;52.090;13.162;2023-10-31T08:44:40;1.25;;;0.60;;
49834;SDS011;35729;52.090;13.162;2023-10-31T08:47:09;1.48;;;1.05;;
49834;SDS011;35729;52.090;13.162;2023-10-31T08:49:37;0.70;;;0.50;;
49834;SDS011;35729;52.090;13.162;2023-10-31T08:52:06;0.70;;;0.60;;
49834;SDS011;35729;52.090;13.162;2023-10-31T08:54:34;1.35;;;0.60;;
49834;SDS011;35729;52.090;13.162;2023-10-31T08:57:03;2.30;;;0.70;;
49834;SDS011;35729;52.090;13.162;2023-10-31T08:59:34;1.73;;;0.68;;
49834;SDS011;35729;52.090;13.162;2023-10-31T09:02:03;0.82;;;0.60;;
49834;SDS011;35729;52.090;13.162;2023-10-31T09:04:31;2.25;;;0.63;;
49834;SDS011;35729;52.090;13.162;2023-10-31T09:07:00;1.10;;;0.60;;
49834;SDS011;35729;52.090;13.162;2023-10-31T09:09:28;1.05;;;0.68;;
49834;SDS011;35729;52.090;13.162;2023-10-31T09:11:57;0.68;;;0.68;;
49834;SDS011;35729;52.090;13.162;2023-10-31T09:14:25;1.95;;;0.63;;
49834;SDS011;35729;52.090;13.162;2023-10-31T09:16:56;1.15;;;0.77;;
49834;SDS011;35729;52.090;13.162;2023-10-31T09:19:25;1.15;;;0.73;;
49834;SDS011;35729;52.090;13.162;2023-10-31T09:21:54;3.08;;;0.90;;
49834;SDS011;35729;52.090;13.162;2023-10-31T09:24:23;0.80;;;0.60;;
49834;SDS011;35729;52.090;13.162;2023-10-31T09:26:51;1.67;;;0.57;;
49834;SDS011;35729;52.090;13.162;2023-10-31T09:29:20;2.17;;;0.85;;
49834;SDS011;35729;52.090;13.162;2023-10-31T09:31:48;1.35;;;0.60;;
49834;SDS011;35729;52.090;13.162;2023-10-31T09:34:19;3.70;;;0.73;;
49834;SDS011;35729;52.090;13.162;2023-10-31T09:36:48;0.95;;;0.70;;
49834;SDS011;35729;52.090;13.162;2023-10-31T09:39:16;0.93;;;0.60;;
49834;SDS011;35729;52.090;13.162;2023-10-31T09:41:45;0.60;;;0.60;;
49834;SDS011;35729;52.090;13.162;2023-10-31T09:44:15;1.08;;;0.80;;
49834;SDS011;35729;52.090;13.162;2023-10-31T09:46:51;3.22;;;0.80;;
49834;SDS011;35729;52.090;13.162;2023-10-31T09:49:22;1.08;;;0.60;;
49834;SDS011;35729;52.090;13.162;2023-10-31T09:51:58;2.47;;;0.73;;
49834;SDS011;35729;52.090;13.162;2023-10-31T09:54:34;4.07;;;0.88;;
49834;SDS011;35729;52.090;13.162;2023-10-31T09:57:05;1.25;;;0.75;;
49834;SDS011;35729;52.090;13.162;2023-10-31T09:59:34;1.45;;;0.70;;
49834;SDS011;35729;52.090;13.162;2023-10-31T10:02:03;1.02;;;0.60;;
49834;SDS011;35729;52.090;13.162;2023-10-31T10:04:31;1.38;;;0.90;;
49834;SDS011;35729;52.090;13.162;2023-10-31T10:07:01;3.65;;;1.10;;
49834;SDS011;35729;52.090;13.162;2023-10-31T10:09:30;2.28;;;0.73;;
49834;SDS011;35729;52.090;13.162;2023-10-31T10:11:59;1.75;;;0.70;;
49834;SDS011;35729;52.090;13.162;2023-10-31T10:14:29;2.95;;;1.17;;
49834;SDS011;35729;52.090;13.162;2023-10-31T10:16:58;2.20;;;1.20;;
49834;SDS011;35729;52.090;13.162;2023-10-31T10:19:27;2.00;;;1.20;;
49834;SDS011;35729;52.090;13.162;2023-10-31T10:21:58;1.23;;;1.00;;
49834;SDS011;35729;52.090;13.162;2023-10-31T10:24:27;2.67;;;1.23;;
49834;SDS011;35729;52.090;13.162;2023-10-31T10:26:55;1.20;;;0.90;;
49834;SDS011;35729;52.090;13.162;2023-10-31T10:29:24;2.88;;;1.15;;
49834;SDS011;35729;52.090;13.162;2023-10-31T10:31:52;1.77;;;0.90;;
49834;SDS011;35729;52.090;13.162;2023-10-31T10:34:22;1.00;;;0.80;;
49834;SDS011;35729;52.090;13.162;2023-10-31T10:36:52;3.70;;;2.20;;
49834;SDS011;35729;52.090;13.162;2023-10-31T10:39:26;1.40;;;1.10;;
49834;SDS011;35729;52.090;13.162;2023-10-31T10:41:56;1.60;;;1.30;;
49834;SDS011;35729;52.090;13.162;2023-10-31T10:44:31;3.10;;;1.02;;
49834;SDS011;35729;52.090;13.162;2023-10-31T10:47:04;1.80;;;1.30;;
49834;SDS011;35729;52.090;13.162;2023-10-31T10:49:34;1.45;;;1.08;;
49834;SDS011;35729;52.090;13.162;2023-10-31T10:52:16;3.00;;;1.30;;
49834;SDS011;35729;52.090;13.162;2023-10-31T10:55:04;2.75;;;1.40;;
49834;SDS011;35729;52.090;13.162;2023-10-31T10:57:42;2.97;;;1.67;;
49834;SDS011;35729;52.090;13.162;2023-10-31T11:00:17;1.40;;;1.10;;
49834;SDS011;35729;52.090;13.162;2023-10-31T11:02:49;3.35;;;1.02;;
49834;SDS011;35729;52.090;13.162;2023-10-31T11:05:19;1.55;;;1.23;;
49834;SDS011;35729;52.090;13.162;2023-10-31T11:07:48;9.18;;;2.30;;
49834;SDS011;35729;52.090;13.162;2023-10-31T11:10:20;3.03;;;1.27;;
49834;SDS011;35729;52.090;13.162;2023-10-31T11:12:49;1.88;;;1.00;;
49834;SDS011;35729;52.090;13.162;2023-10-31T11:15:18;2.95;;;1.10;;
49834;SDS011;35729;52.090;13.162;2023-10-31T11:17:47;3.13;;;0.98;;
49834;SDS011;35729;52.090;13.162;2023-10-31T11:20:17;1.33;;;1.02;;
49834;SDS011;35729;52.090;13.162;2023-10-31T11:22:46;2.92;;;1.30;;
49834;SDS011;35729;52.090;13.162;2023-10-31T11:25:20;3.70;;;0.90;;
49834;SDS011;35729;52.090;13.162;2023-10-31T11:27:49;2.70;;;0.88;;
49834;SDS011;35729;52.090;13.162;2023-10-31T11:30:21;2.33;;;1.05;;
49834;SDS011;35729;52.090;13.162;2023-10-31T11:32:53;1.50;;;1.10;;
49834;SDS011;35729;52.090;13.162;2023-10-31T11:35:22;2.35;;;1.30;;
49834;SDS011;35729;52.090;13.162;2023-10-31T11:38:00;1.92;;;0.98;;
49834;SDS011;35729;52.090;13.162;2023-10-31T11:40:37;2.45;;;1.00;;
49834;SDS011;35729;52.090;13.162;2023-10-31T11:43:14;1.48;;;0.88;;
49834;SDS011;35729;52.090;13.162;2023-10-31T11:45:43;0.98;;;0.50;;
49834;SDS011;35729;52.090;13.162;2023-10-31T11:48:13;1.75;;;0.82;;
49834;SDS011;35729;52.090;13.162;2023-10-31T11:50:42;1.85;;;0.93;;
49834;SDS011;35729;52.090;13.162;2023-10-31T11:53:11;1.73;;;1.05;;
49834;SDS011;35729;52.090;13.162;2023-10-31T11:55:44;0.75;;;0.50;;
49834;SDS011;35729;52.090;13.162;2023-10-31T11:58:14;0.70;;;0.50;;
49834;SDS011;35729;52.090;13.162;2023-10-31T12:00:45;2.13;;;0.60;;
49834;SDS011;35729;52.090;13.162;2023-10-31T12:03:15;2.05;;;0.43;;
49834;SDS011;35729;52.090;13.162;2023-10-31T12:05:51;3.10;;;0.50;;
49834;SDS011;35729;52.090;13.162;2023-10-31T12:08:26;0.95;;;0.50;;
49834;SDS011;35729;52.090;13.162;2023-10-31T12:11:11;0.55;;;0.50;;
49834;SDS011;35729;52.090;13.162;2023-10-31T12:13:41;2.10;;;0.40;;
49834;SDS011;35729;52.090;13.162;2023-10-31T12:16:22;3.22;;;0.80;;
49834;SDS011;35729;52.090;13.162;2023-10-31T12:18:56;0.95;;;0.30;;
49834;SDS011;35729;52.090;13.162;2023-10-31T12:21:38;2.65;;;0.65;;
49834;SDS011;35729;52.090;13.162;2023-10-31T12:24:08;1.05;;;0.70;;
49834;SDS011;35729;52.090;13.162;2023-10-31T12:26:40;0.82;;;0.60;;
49834;SDS011;35729;52.090;13.162;2023-10-31T12:29:10;0.77;;;0.60;;
49834;SDS011;35729;52.090;13.162;2023-10-31T12:31:39;0.68;;;0.60;;
49834;SDS011;35729;52.090;13.162;2023-10-31T12:34:10;1.95;;;0.70;;
49834;SDS011;35729;52.090;13.162;2023-10-31T12:36:39;0.43;;;0.40;;
49834;SDS011;35729;52.090;13.162;2023-10-31T12:39:10;0.80;;;0.55;;
49834;SDS011;35729;52.090;13.162;2023-10-31T12:41:42;0.93;;;0.63;;
49834;SDS011;35729;52.090;13.162;2023-10-31T12:44:11;1.40;;;0.50;;
49834;SDS011;35729;52.090;13.162;2023-10-31T12:46:44;0.52;;;0.47;;
49834;SDS011;35729;52.090;13.162;2023-10-31T12:49:19;0.68;;;0.68;;
49834;SDS011;35729;52.090;13.162;2023-10-31T12:51:56;1.58;;;0.70;;
49834;SDS011;35729;52.090;13.162;2023-10-31T12:54:29;1.15;;;0.70;;
49834;SDS011;35729;52.090;13.162;2023-10-31T12:57:03;0.85;;;0.55;;
49834;SDS011;35729;52.090;13.162;2023-10-31T12:59:32;1.47;;;0.70;;
49834;SDS011;35729;52.090;13.162;2023-10-31T13:02:03;2.83;;;0.73;;
49834;SDS011;35729;52.090;13.162;2023-10-31T13:04:32;0.47;;;0.32;;
49834;SDS011;35729;52.090;13.162;2023-10-31T13:07:01;0.50;;;0.40;;
49834;SDS011;35729;52.090;13.162;2023-10-31T13:09:31;2.10;;;0.50;;
49834;SDS011;35729;52.090;13.162;2023-10-31T13:12:04;1.17;;;0.60;;
49834;SDS011;35729;52.090;13.162;2023-10-31T13:14:35;4.97;;;0.50;;
49834;SDS011;35729;52.090;13.162;2023-10-31T13:17:04;0.80;;;0.50;;
49834;SDS011;35729;52.090;13.162;2023-10-31T13:19:33;0.63;;;0.40;;
49834;SDS011;35729;52.090;13.162;2023-10-31T13:22:01;0.47;;;0.40;;
49834;SDS011;35729;52.090;13.162;2023-10-31T13:24:30;2.20;;;0.63;;
49834;SDS011;35729;52.090;13.162;2023-10-31T13:26:59;1.58;;;0.40;;
49834;SDS011;35729;52.090;13.162;2023-10-31T13:29:31;0.73;;;0.40;;
49834;SDS011;35729;52.090;13.162;2023-10-31T13:32:00;0.90;;;0.60;;
49834;SDS011;35729;52.090;13.162;2023-10-31T13:34:28;0.75;;;0.57;;
49834;SDS011;35729;52.090;13.162;2023-10-31T13:36:58;2.00;;;0.50;;
49834;SDS011;35729;52.090;13.162;2023-10-31T13:39:27;1.05;;;0.57;;
49834;SDS011;35729;52.090;13.162;2023-10-31T13:41:56;0.85;;;0.60;;
49834;SDS011;35729;52.090;13.162;2023-10-31T13:44:24;1.85;;;0.60;;
49834;SDS011;35729;52.090;13.162;2023-10-31T13:46:56;0.30;;;0.30;;
49834;SDS011;35729;52.090;13.162;2023-10-31T13:49:24;0.80;;;0.57;;
49834;SDS011;35729;52.090;13.162;2023-10-31T13:51:53;0.40;;;0.30;;
49834;SDS011;35729;52.090;13.162;2023-10-31T13:54:22;1.67;;;0.38;;
49834;SDS011;35729;52.090;13.162;2023-10-31T13:56:50;0.52;;;0.40;;
49834;SDS011;35729;52.090;13.162;2023-10-31T13:59:19;0.38;;;0.22;;
49834;SDS011;35729;52.090;13.162;2023-10-31T14:01:47;1.58;;;0.73;;
49834;SDS011;35729;52.090;13.162;2023-10-31T14:04:19;1.13;;;0.52;;
49834;SDS011;35729;52.090;13.162;2023-10-31T14:06:47;1.75;;;0.60;;
49834;SDS011;35729;52.090;13.162;2023-10-31T14:09:23;2.10;;;0.45;;
49834;SDS011;35729;52.090;13.162;2023-10-31T14:11:52;0.70;;;0.40;;
49834;SDS011;35729;52.090;13.162;2023-10-31T14:14:20;0.35;;;0.30;;
49834;SDS011;35729;52.090;13.162;2023-10-31T14:16:49;2.85;;;0.45;;
49834;SDS011;35729;52.090;13.162;2023-10-31T14:19:20;2.80;;;0.30;;
49834;SDS011;35729;52.090;13.162;2023-10-31T14:21:48;1.50;;;0.40;;
49834;SDS011;35729;52.090;13.162;2023-10-31T14:24:17;0.60;;;0.38;;
49834;SDS011;35729;52.090;13.162;2023-10-31T14:26:47;1.67;;;0.60;;
49834;SDS011;35729;52.090;13.162;2023-10-31T14:29:15;0.47;;;0.30;;
49834;SDS011;35729;52.090;13.162;2023-10-31T14:31:44;1.02;;;0.50;;
49834;SDS011;35729;52.090;13.162;2023-10-31T14:34:12;1.95;;;0.50;;
49834;SDS011;35729;52.090;13.162;2023-10-31T14:36:44;1.52;;;0.40;;
49834;SDS011;35729;52.090;13.162;2023-10-31T14:39:12;0.75;;;0.50;;